createdAt,value
2018-05-03T00:04:01.303Z,11.20
2018-05-03T00:08:03.933Z,11.20
2018-05-03T00:12:06.564Z,11.20
2018-05-03T00:16:09.928Z,11.30
2018-05-03T00:20:13.359Z,11.30
2018-05-03T00:24:16.760Z,11.30
2018-05-03T00:28:19.423Z,11.30
2018-05-03T00:32:22.832Z,11.30
2018-05-03T00:36:25.480Z,11.30
2018-05-03T00:40:28.120Z,11.30
2018-05-03T00:44:30.756Z,11.40
2018-05-03T00:48:33.383Z,11.30
2018-05-03T00:52:35.981Z,11.30
2018-05-03T00:56:38.616Z,11.30
2018-05-03T01:00:41.283Z,11.40
2018-05-03T01:04:44.677Z,11.30
2018-05-03T01:08:47.336Z,11.30
2018-05-03T01:12:49.941Z,11.30
2018-05-03T01:16:52.580Z,11.30
2018-05-03T01:20:55.217Z,11.30
2018-05-03T01:24:57.856Z,11.30
2018-05-03T01:29:00.500Z,11.30
2018-05-03T01:33:03.901Z,11.30
2018-05-03T01:37:06.548Z,11.20
2018-05-03T01:41:09.188Z,11.20
2018-05-03T01:45:11.828Z,11.20
2018-05-03T01:49:14.473Z,11.10
2018-05-03T01:53:17.841Z,11.10
2018-05-03T01:57:20.479Z,11.00
2018-05-03T02:01:23.937Z,11.00
2018-05-03T02:05:26.586Z,10.90
2018-05-03T02:09:29.228Z,10.90
2018-05-03T02:13:31.829Z,10.90
2018-05-03T02:17:34.537Z,10.80
2018-05-03T02:21:37.950Z,10.70
2018-05-03T02:25:41.369Z,10.70
2018-05-03T02:29:44.017Z,10.60
2018-05-03T02:33:46.616Z,10.60
2018-05-03T02:37:49.296Z,10.60
2018-05-03T02:41:51.949Z,10.50
2018-05-03T02:45:54.592Z,10.50
2018-05-03T02:49:57.992Z,10.40
2018-05-03T02:54:01.421Z,10.40
2018-05-03T02:58:17.736Z,10.30
2018-05-03T03:02:25.943Z,10.30
2018-05-03T03:11:38.233Z,10.20
2018-05-03T03:15:58.427Z,10.10
2018-05-03T03:34:23.557Z,10.00
2018-05-03T03:38:38.034Z,9.90
2018-05-03T04:14:17.141Z,9.80
2018-05-03T04:18:31.718Z,9.80
2018-05-03T04:22:46.251Z,9.80
2018-05-03T04:26:48.949Z,9.80
2018-05-03T04:30:51.591Z,9.90
2018-05-03T04:34:54.232Z,9.90
2018-05-03T04:38:56.864Z,10.00
2018-05-03T04:42:59.507Z,10.10
2018-05-03T04:47:02.208Z,10.10
2018-05-03T04:51:04.822Z,10.20
2018-05-03T04:55:07.475Z,10.30
2018-05-03T04:59:10.089Z,10.40
2018-05-03T05:03:12.729Z,10.50
2018-05-03T05:07:15.418Z,10.50
2018-05-03T05:11:18.061Z,10.60
2018-05-03T05:15:20.717Z,10.70
2018-05-03T05:19:24.096Z,10.80
2018-05-03T05:23:26.736Z,10.80
2018-05-03T05:27:29.390Z,10.90
2018-05-03T05:31:32.037Z,11.00
2018-05-03T05:35:34.727Z,11.00
2018-05-03T05:39:37.461Z,11.20
2018-05-03T05:43:40.113Z,11.20
2018-05-03T05:47:43.515Z,11.40
2018-05-03T05:51:46.957Z,11.50
2018-05-03T05:55:49.640Z,11.40
2018-05-03T05:59:52.248Z,11.50
2018-05-03T06:03:54.893Z,11.60
2018-05-03T06:07:58.304Z,11.60
2018-05-03T06:12:01.787Z,11.70
2018-05-03T06:16:04.523Z,11.70
2018-05-03T06:20:07.123Z,11.80
2018-05-03T06:24:09.768Z,11.90
2018-05-03T06:28:13.190Z,12.00
2018-05-03T06:32:16.610Z,12.10
2018-05-03T06:36:19.280Z,12.00
2018-05-03T06:40:22.655Z,12.40
2018-05-03T06:44:25.300Z,12.30
2018-05-03T06:48:27.945Z,12.80
2018-05-03T06:52:31.354Z,13.90
2018-05-03T06:56:34.005Z,13.80
2018-05-03T07:00:36.600Z,15.20
2018-05-03T07:04:39.257Z,15.90
2018-05-03T07:08:41.912Z,16.00
2018-05-03T07:12:44.550Z,16.70
2018-05-03T07:16:47.188Z,17.20
2018-05-03T07:20:50.562Z,17.80
2018-05-03T07:24:53.223Z,17.70
2018-05-03T07:28:55.867Z,17.90
2018-05-03T07:32:58.517Z,17.80
2018-05-03T07:37:01.164Z,18.00
2018-05-03T07:41:04.540Z,18.50
2018-05-03T07:45:07.185Z,18.50
2018-05-03T07:49:09.897Z,18.60
2018-05-03T07:53:12.545Z,18.80
2018-05-03T07:57:15.185Z,19.10
2018-05-03T08:01:17.800Z,19.40
2018-05-03T08:05:21.207Z,20.00
2018-05-03T08:09:24.613Z,20.30
2018-05-03T08:13:28.025Z,20.60
2018-05-03T08:17:31.436Z,21.00
2018-05-03T08:21:34.044Z,20.90
2018-05-03T08:25:36.813Z,21.20
2018-05-03T08:29:39.957Z,21.40
2018-05-03T08:33:42.656Z,21.50
2018-05-03T08:37:45.304Z,21.40
2018-05-03T08:41:48.004Z,21.50
2018-05-03T08:45:50.652Z,21.60
2018-05-03T08:49:53.295Z,21.30
2018-05-03T08:53:55.973Z,20.80
2018-05-03T08:57:58.628Z,20.00
2018-05-03T09:02:02.005Z,18.70
2018-05-03T09:06:04.653Z,18.60
2018-05-03T09:10:07.299Z,18.30
2018-05-03T09:14:09.950Z,17.90
2018-05-03T09:18:12.609Z,17.60
2018-05-03T09:22:15.255Z,17.40
2018-05-03T09:26:17.926Z,17.20
2018-05-03T09:30:20.570Z,17.00
2018-05-03T09:34:23.232Z,17.00
2018-05-03T09:38:26.610Z,16.80
2018-05-03T09:42:29.317Z,16.70
2018-05-03T09:46:31.951Z,16.80
2018-05-03T09:50:34.601Z,16.70
2018-05-03T09:54:37.204Z,16.70
2018-05-03T09:58:40.611Z,16.50
2018-05-03T10:02:44.030Z,16.40
2018-05-03T10:06:46.677Z,16.30
2018-05-03T10:10:49.314Z,16.30
2018-05-03T10:14:51.929Z,16.30
2018-05-03T10:18:54.589Z,16.40
2018-05-03T10:22:57.244Z,16.40
2018-05-03T10:26:59.892Z,16.30
2018-05-03T10:31:02.504Z,16.30
2018-05-03T10:35:05.202Z,16.30
2018-05-03T10:39:07.842Z,16.30
2018-05-03T10:43:10.489Z,16.40
2018-05-03T10:47:13.171Z,16.40
2018-05-03T10:51:15.786Z,16.30
2018-05-03T10:55:18.436Z,16.30
2018-05-03T10:59:21.091Z,16.30
2018-05-03T11:03:23.786Z,16.30
2018-05-03T11:07:26.436Z,16.30
2018-05-03T11:11:29.043Z,16.30
2018-05-03T11:15:31.681Z,16.30
2018-05-03T11:19:34.375Z,16.30
2018-05-03T11:23:37.088Z,16.40
2018-05-03T11:27:40.581Z,16.50
2018-05-03T11:31:43.951Z,16.60
2018-05-03T11:35:46.600Z,16.60
2018-05-03T11:39:49.244Z,16.70
2018-05-03T11:43:51.889Z,16.80
2018-05-03T11:47:54.535Z,16.90
2018-05-03T11:51:57.972Z,17.00
2018-05-03T11:56:00.611Z,16.90
2018-05-03T12:00:03.257Z,17.10
2018-05-03T12:04:05.955Z,17.10
2018-05-03T12:08:08.561Z,17.20
2018-05-03T12:12:11.199Z,17.20
2018-05-03T12:16:14.610Z,17.20
2018-05-03T12:20:18.026Z,17.30
2018-05-03T12:24:20.718Z,17.30
2018-05-03T12:28:24.076Z,17.40
2018-05-03T12:32:26.780Z,17.40
2018-05-03T12:36:29.421Z,17.50
2018-05-03T12:40:32.064Z,17.50
2018-05-03T12:44:35.477Z,17.60
2018-05-03T12:48:38.850Z,17.70
2018-05-03T12:52:41.501Z,17.70
2018-05-03T12:56:44.145Z,17.90
2018-05-03T13:00:46.909Z,18.00
2018-05-03T13:04:49.483Z,18.10
2018-05-03T13:08:52.145Z,18.20
2018-05-03T13:12:54.788Z,18.20
2018-05-03T13:16:57.424Z,18.30
2018-05-03T13:21:00.072Z,18.40
2018-05-03T13:25:02.688Z,18.50
2018-05-03T13:29:05.366Z,18.60
2018-05-03T13:33:08.779Z,18.70
2018-05-03T13:37:12.188Z,18.80
2018-05-03T13:41:15.659Z,18.80
2018-05-03T13:45:18.316Z,18.80
2018-05-03T13:49:20.951Z,18.80
2018-05-03T13:53:23.705Z,18.90
2018-05-03T13:57:26.357Z,19.00
2018-05-03T14:01:29.000Z,19.30
2018-05-03T14:05:31.606Z,19.50
2018-05-03T14:09:35.029Z,19.60
2018-05-03T14:13:38.436Z,19.60
2018-05-03T14:17:41.848Z,19.60
2018-05-03T14:21:44.487Z,19.60
2018-05-03T14:25:47.151Z,19.70
2018-05-03T14:29:49.789Z,19.80
2018-05-03T14:33:53.196Z,20.10
2018-05-03T14:37:55.837Z,20.10
2018-05-03T14:41:58.481Z,20.10
2018-05-03T14:46:01.855Z,20.20
2018-05-03T14:50:04.495Z,20.20
2018-05-03T14:54:07.141Z,20.20
2018-05-03T14:58:09.788Z,20.20
2018-05-03T15:02:12.443Z,20.20
2018-05-03T15:06:15.865Z,20.30
2018-05-03T15:10:18.505Z,20.30
2018-05-03T15:14:21.949Z,20.10
2018-05-03T15:18:25.408Z,20.00
2018-05-03T15:22:28.072Z,20.00
2018-05-03T15:26:30.672Z,19.90
2018-05-03T15:30:33.308Z,19.80
2018-05-03T15:34:37.149Z,19.80
2018-05-03T15:38:39.819Z,19.70
2018-05-03T15:42:42.493Z,19.80
2018-05-03T15:46:45.101Z,19.80
2018-05-03T15:50:48.508Z,19.80
2018-05-03T15:54:51.162Z,19.80
2018-05-03T15:58:53.814Z,19.80
2018-05-03T16:02:56.456Z,19.70
2018-05-03T16:06:59.070Z,19.70
2018-05-03T16:11:01.711Z,19.60
2018-05-03T16:15:04.352Z,19.50
2018-05-03T16:19:07.004Z,19.40
2018-05-03T16:23:09.658Z,19.40
2018-05-03T16:27:12.327Z,19.40
2018-05-03T16:31:15.764Z,19.10
2018-05-03T16:35:19.213Z,19.00
2018-05-03T16:39:22.677Z,19.00
2018-05-03T16:43:25.322Z,19.00
2018-05-03T16:47:27.938Z,19.00
2018-05-03T16:51:30.588Z,19.00
2018-05-03T16:55:33.229Z,19.00
2018-05-03T16:59:35.873Z,18.90
2018-05-03T17:03:38.509Z,18.90
2018-05-03T17:07:41.125Z,18.90
2018-05-03T17:11:44.536Z,18.80
2018-05-03T17:15:47.941Z,18.80
2018-05-03T17:19:51.343Z,18.80
2018-05-03T17:23:54.751Z,18.80
2018-05-03T17:27:58.125Z,18.90
2018-05-03T17:32:00.821Z,18.80
2018-05-03T17:36:03.520Z,18.80
2018-05-03T17:40:06.164Z,18.80
2018-05-03T17:44:08.805Z,18.70
2018-05-03T17:48:11.419Z,18.70
2018-05-03T17:52:14.061Z,18.60
2018-05-03T17:56:16.699Z,18.50
2018-05-03T18:00:19.337Z,18.40
2018-05-03T18:04:21.980Z,18.30
2018-05-03T18:08:24.637Z,18.30
2018-05-03T18:12:28.058Z,18.00
2018-05-03T18:16:30.737Z,18.00
2018-05-03T18:20:34.146Z,17.80
2018-05-03T18:24:37.616Z,17.60
2018-05-03T18:28:40.265Z,17.60
2018-05-03T18:32:43.192Z,17.40
2018-05-03T18:36:45.896Z,17.30
2018-05-03T18:40:49.417Z,17.10
2018-05-03T18:44:52.061Z,17.10
2018-05-03T18:48:54.721Z,17.00
2018-05-03T18:52:58.125Z,16.80
2018-05-03T18:57:01.539Z,16.70
2018-05-03T19:01:04.277Z,16.60
2018-05-03T19:05:07.630Z,16.40
2018-05-03T19:09:10.280Z,16.40
2018-05-03T19:13:12.977Z,16.30
2018-05-03T19:17:15.632Z,16.20
2018-05-03T19:21:19.038Z,16.00
2018-05-03T19:25:21.719Z,15.90
2018-05-03T19:29:24.393Z,15.90
2018-05-03T19:33:27.004Z,15.70
2018-05-03T19:37:29.657Z,15.60
2018-05-03T19:41:32.412Z,15.50
2018-05-03T19:45:35.847Z,15.30
2018-05-03T19:49:39.274Z,15.20
2018-05-03T19:53:41.933Z,15.10
2018-05-03T19:57:45.346Z,14.90
2018-05-03T20:01:48.752Z,14.80
2018-05-03T20:05:52.178Z,14.70
2018-05-03T20:09:54.832Z,14.60
2018-05-03T20:13:57.563Z,14.60
2018-05-03T20:18:00.209Z,14.50
2018-05-03T20:22:02.856Z,14.40
2018-05-03T20:26:05.505Z,14.30
2018-05-03T20:30:08.964Z,14.20
2018-05-03T20:34:11.578Z,14.10
2018-05-03T20:38:14.226Z,14.00
2018-05-03T20:42:16.872Z,13.90
2018-05-03T20:46:19.557Z,13.90
2018-05-03T20:50:22.980Z,13.70
2018-05-03T20:54:26.406Z,13.60
2018-05-03T20:58:29.056Z,13.50
2018-05-03T21:02:32.526Z,13.30
2018-05-03T21:06:35.173Z,13.30
2018-05-03T21:10:37.834Z,13.20
2018-05-03T21:14:40.444Z,13.20
2018-05-03T21:18:43.972Z,12.90
2018-05-03T21:22:46.618Z,12.90
2018-05-03T21:26:49.260Z,12.80
2018-05-03T21:30:51.904Z,12.80
2018-05-03T21:34:55.335Z,12.60
2018-05-03T21:38:58.029Z,12.50
2018-05-03T21:43:00.681Z,12.50
2018-05-03T21:47:03.398Z,12.40
2018-05-03T21:51:06.008Z,12.30
2018-05-03T21:55:08.652Z,12.30
2018-05-03T21:59:12.072Z,12.10
2018-05-03T22:03:15.479Z,12.00
2018-05-03T22:07:18.900Z,11.90
2018-05-03T22:11:21.556Z,11.90
2018-05-03T22:15:24.202Z,11.90
2018-05-03T22:19:27.615Z,11.70
2018-05-03T22:23:30.260Z,11.60
2018-05-03T22:27:32.942Z,11.60
2018-05-03T22:31:36.366Z,11.50
2018-05-03T22:35:38.980Z,11.40
2018-05-03T22:39:41.620Z,11.40
2018-05-03T22:43:45.040Z,11.20
2018-05-03T22:47:47.685Z,11.20
2018-05-03T22:51:50.356Z,11.20
2018-05-03T22:55:53.020Z,11.10
2018-05-03T22:59:55.667Z,11.00
2018-05-03T23:03:58.318Z,10.90
2018-05-03T23:08:00.952Z,10.90
2018-05-03T23:12:04.356Z,10.80
2018-05-03T23:16:07.764Z,10.70
2018-05-03T23:20:11.165Z,10.60
2018-05-03T23:24:13.815Z,10.60
2018-05-03T23:28:16.457Z,10.60
2018-05-03T23:32:19.882Z,10.50
2018-05-03T23:36:22.492Z,10.40
2018-05-03T23:40:25.136Z,10.40
2018-05-03T23:44:28.540Z,10.30
2018-05-03T23:48:31.939Z,10.20
2018-05-03T23:52:35.348Z,10.10
2018-05-03T23:56:38.713Z,10.00
